createdAt,value
2022-11-15T00:00:08.379Z,10.78
2022-11-15T00:01:08.386Z,10.81
2022-11-15T00:02:08.576Z,10.84
2022-11-15T00:03:08.670Z,10.86
2022-11-15T00:04:08.277Z,10.89
2022-11-15T00:05:08.352Z,10.91
2022-11-15T00:06:08.418Z,10.92
2022-11-15T00:07:08.395Z,10.94
2022-11-15T00:08:08.441Z,10.95
2022-11-15T00:09:08.248Z,10.96
2022-11-15T00:10:08.221Z,10.98
2022-11-15T00:11:08.215Z,10.98
2022-11-15T00:12:08.189Z,10.98
2022-11-15T00:13:08.364Z,10.99
2022-11-15T00:14:08.223Z,10.99
2022-11-15T00:15:08.208Z,11.01
2022-11-15T00:16:08.534Z,11.01
2022-11-15T00:17:08.358Z,11.06
2022-11-15T00:18:08.230Z,11.07
2022-11-15T00:19:08.257Z,11.10
2022-11-15T00:20:08.262Z,11.11
2022-11-15T00:21:08.605Z,11.11
2022-11-15T00:22:08.123Z,11.11
2022-11-15T00:23:08.162Z,11.11
2022-11-15T00:24:08.137Z,11.13
2022-11-15T00:25:08.122Z,11.14
2022-11-15T00:26:08.299Z,11.16
2022-11-15T00:27:08.557Z,11.20
2022-11-15T00:28:08.366Z,11.20
2022-11-15T00:29:08.078Z,11.21
2022-11-15T00:30:08.113Z,11.25
2022-11-15T00:31:08.017Z,11.24
2022-11-15T00:32:07.980Z,11.25
2022-11-15T00:33:08.136Z,11.25
2022-11-15T00:34:08.006Z,11.24
2022-11-15T00:35:08.194Z,11.24
2022-11-15T00:36:07.943Z,11.27
2022-11-15T00:37:07.976Z,11.29
2022-11-15T00:38:08.174Z,11.31
2022-11-15T00:39:08.361Z,11.29
2022-11-15T00:40:08.119Z,11.31
2022-11-15T00:41:09.934Z,11.31
2022-11-15T00:42:08.039Z,11.32
2022-11-15T00:43:07.951Z,11.31
2022-11-15T00:44:08.269Z,11.34
2022-11-15T00:45:08.018Z,11.35
2022-11-15T00:46:07.879Z,11.36
2022-11-15T00:47:07.878Z,11.39
2022-11-15T00:48:07.880Z,11.38
2022-11-15T00:49:08.012Z,11.41
2022-11-15T00:50:09.793Z,11.39
2022-11-15T00:51:08.280Z,11.41
2022-11-15T00:52:07.821Z,11.41
2022-11-15T00:53:07.771Z,11.43
2022-11-15T00:54:07.872Z,11.44
2022-11-15T00:55:07.751Z,11.49
2022-11-15T00:56:08.060Z,11.52
2022-11-15T00:57:08.070Z,11.52
2022-11-15T00:58:07.734Z,11.54
2022-11-15T00:59:07.904Z,11.57
2022-11-15T01:00:07.878Z,11.57
2022-11-15T01:01:07.745Z,11.59
2022-11-15T01:02:07.878Z,11.57
2022-11-15T01:03:07.744Z,11.59
2022-11-15T01:04:07.700Z,11.59
2022-11-15T01:05:07.686Z,11.59
2022-11-15T01:06:07.637Z,11.59
2022-11-15T01:07:07.771Z,11.61
2022-11-15T01:08:07.832Z,11.61
2022-11-15T01:09:07.839Z,11.62
2022-11-15T01:10:07.665Z,11.65
2022-11-15T01:11:07.780Z,11.67
2022-11-15T01:12:07.610Z,11.70
2022-11-15T01:13:07.802Z,11.70
2022-11-15T01:14:07.712Z,11.71
2022-11-15T01:15:07.753Z,11.72
2022-11-15T01:16:07.838Z,11.74
2022-11-15T01:17:07.551Z,11.75
2022-11-15T01:18:07.597Z,11.77
2022-11-15T01:19:07.710Z,11.80
2022-11-15T01:20:07.678Z,11.83
2022-11-15T01:21:07.946Z,11.87
2022-11-15T01:22:07.479Z,11.87
2022-11-15T01:23:07.481Z,11.90
2022-11-15T01:24:07.614Z,11.89
2022-11-15T01:25:07.471Z,11.90
2022-11-15T01:26:07.493Z,11.89
2022-11-15T01:27:07.585Z,11.90
2022-11-15T01:28:07.602Z,11.94
2022-11-15T01:29:07.781Z,11.96
2022-11-15T01:30:07.431Z,11.99
2022-11-15T01:31:07.541Z,12.04
2022-11-15T01:32:07.566Z,12.04
2022-11-15T01:33:07.461Z,12.04
2022-11-15T01:34:07.548Z,12.04
2022-11-15T01:35:07.400Z,12.04
2022-11-15T01:36:07.640Z,12.05
2022-11-15T01:37:07.495Z,12.05
2022-11-15T01:38:07.361Z,12.05
2022-11-15T01:39:07.524Z,12.06
2022-11-15T01:40:07.514Z,12.08
2022-11-15T01:41:07.422Z,12.09
2022-11-15T01:42:07.406Z,12.08
2022-11-15T01:43:07.561Z,12.12
2022-11-15T01:44:07.359Z,12.12
2022-11-15T01:45:07.439Z,12.15
2022-11-15T01:46:07.399Z,12.13
2022-11-15T01:47:07.240Z,12.16
2022-11-15T01:48:07.280Z,12.19
2022-11-15T01:49:07.451Z,12.19
2022-11-15T01:50:07.288Z,12.16
2022-11-15T01:51:07.458Z,12.15
2022-11-15T01:52:07.485Z,12.13
2022-11-15T01:53:07.257Z,12.13
2022-11-15T01:54:07.372Z,12.11
2022-11-15T01:55:07.219Z,12.08
2022-11-15T01:56:07.359Z,12.06
2022-11-15T01:57:07.231Z,12.04
2022-11-15T01:58:07.276Z,11.99
2022-11-15T01:59:07.149Z,11.97
2022-11-15T02:00:07.438Z,11.97
2022-11-15T02:01:07.360Z,11.99
2022-11-15T02:02:07.248Z,11.97
2022-11-15T02:03:07.240Z,11.99
2022-11-15T02:04:07.098Z,11.99
2022-11-15T02:05:07.046Z,12.01
2022-11-15T02:06:07.057Z,12.04
2022-11-15T02:07:07.079Z,12.06
2022-11-15T02:08:07.041Z,12.08
2022-11-15T02:09:07.259Z,12.08
2022-11-15T02:10:07.027Z,12.09
2022-11-15T02:11:07.178Z,12.09
2022-11-15T02:12:07.249Z,12.06
2022-11-15T02:13:07.133Z,12.08
2022-11-15T02:14:07.164Z,12.05
2022-11-15T02:15:07.133Z,12.06
2022-11-15T02:16:07.106Z,12.06
2022-11-15T02:17:06.933Z,12.09
2022-11-15T02:18:06.969Z,12.12
2022-11-15T02:19:07.369Z,12.12
2022-11-15T02:20:06.898Z,12.11
2022-11-15T02:21:06.960Z,12.12
2022-11-15T02:22:07.209Z,12.11
2022-11-15T02:23:07.032Z,12.11
2022-11-15T02:24:07.043Z,12.11
2022-11-15T02:25:06.850Z,12.12
2022-11-15T02:26:07.137Z,12.13
2022-11-15T02:27:07.041Z,12.13
2022-11-15T02:28:06.926Z,12.15
2022-11-15T02:29:07.044Z,12.15
2022-11-15T02:30:06.990Z,12.15
2022-11-15T02:31:06.804Z,12.13
2022-11-15T02:32:06.782Z,12.16
2022-11-15T02:33:07.010Z,12.15
2022-11-15T02:34:06.760Z,12.15
2022-11-15T02:35:06.760Z,12.15
2022-11-15T02:36:07.020Z,12.15
2022-11-15T02:37:06.728Z,12.15
2022-11-15T02:38:06.804Z,12.15
2022-11-15T02:39:06.807Z,12.15
2022-11-15T02:40:06.698Z,12.16
2022-11-15T02:41:06.973Z,12.15
2022-11-15T02:42:06.682Z,12.19
2022-11-15T02:43:08.463Z,12.19
2022-11-15T02:44:06.862Z,12.19
2022-11-15T02:45:06.663Z,12.16
2022-11-15T02:46:06.799Z,12.16
2022-11-15T02:47:06.801Z,12.20
2022-11-15T02:48:06.620Z,12.23
2022-11-15T02:49:06.806Z,12.23
2022-11-15T02:50:06.986Z,12.27
2022-11-15T02:51:06.671Z,12.29
2022-11-15T02:52:06.567Z,12.30
2022-11-15T02:53:06.568Z,12.30
2022-11-15T02:54:06.538Z,12.30
2022-11-15T02:55:06.555Z,12.31
2022-11-15T02:56:06.667Z,12.31
2022-11-15T02:57:06.565Z,12.31
2022-11-15T02:58:06.533Z,12.30
2022-11-15T02:59:06.739Z,12.30
2022-11-15T03:00:06.638Z,12.30
2022-11-15T03:01:06.618Z,12.31
2022-11-15T03:02:06.704Z,12.31
2022-11-15T03:03:06.600Z,12.31
2022-11-15T03:04:06.468Z,12.31
2022-11-15T03:05:06.646Z,12.33
2022-11-15T03:06:06.514Z,12.33
2022-11-15T03:07:06.464Z,12.31
2022-11-15T03:08:06.416Z,12.31
2022-11-15T03:09:06.456Z,12.30
2022-11-15T03:10:06.415Z,12.29
2022-11-15T03:11:06.404Z,12.27
2022-11-15T03:12:06.467Z,12.26
2022-11-15T03:13:06.393Z,12.29
2022-11-15T03:14:06.371Z,12.27
2022-11-15T03:15:06.808Z,12.27
2022-11-15T03:16:06.446Z,12.27
2022-11-15T03:17:06.314Z,12.29
2022-11-15T03:18:06.343Z,12.27
2022-11-15T03:19:06.360Z,12.30
2022-11-15T03:20:06.298Z,12.29
2022-11-15T03:21:06.785Z,12.30
2022-11-15T03:22:06.296Z,12.29
2022-11-15T03:23:06.282Z,12.31
2022-11-15T03:24:06.380Z,12.33
2022-11-15T03:25:06.446Z,12.31
2022-11-15T03:26:06.414Z,12.33
2022-11-15T03:27:06.295Z,12.34
2022-11-15T03:28:06.336Z,12.31
2022-11-15T03:29:06.568Z,12.33
2022-11-15T03:30:06.359Z,12.38
2022-11-15T03:31:06.210Z,12.39
2022-11-15T03:32:06.385Z,12.41
2022-11-15T03:33:06.201Z,12.44
2022-11-15T03:34:06.222Z,12.46
2022-11-15T03:35:06.268Z,12.48
2022-11-15T03:36:06.325Z,12.51
2022-11-15T03:37:06.176Z,12.49
2022-11-15T03:38:06.282Z,12.51
2022-11-15T03:39:06.119Z,12.52
2022-11-15T03:40:06.140Z,12.49
2022-11-15T03:41:06.660Z,12.51
2022-11-15T03:42:06.260Z,12.56
2022-11-15T03:43:06.119Z,12.60
2022-11-15T03:44:06.092Z,12.63
2022-11-15T03:45:06.075Z,12.63
2022-11-15T03:46:06.141Z,12.64
2022-11-15T03:47:06.145Z,12.63
2022-11-15T03:48:06.167Z,12.63
2022-11-15T03:49:06.044Z,12.62
2022-11-15T03:50:06.068Z,12.62
2022-11-15T03:51:05.991Z,12.62
2022-11-15T03:52:06.005Z,12.62
2022-11-15T03:53:05.990Z,12.60
2022-11-15T03:54:06.001Z,12.60
2022-11-15T03:55:05.932Z,12.59
2022-11-15T03:56:06.052Z,12.62
2022-11-15T03:57:06.129Z,12.60
2022-11-15T03:58:05.932Z,12.62
2022-11-15T03:59:05.935Z,12.63
2022-11-15T04:00:06.056Z,12.64
2022-11-15T04:01:06.146Z,12.66
2022-11-15T04:02:05.885Z,12.69
2022-11-15T04:03:05.936Z,12.71
2022-11-15T04:04:06.121Z,12.75
2022-11-15T04:05:06.047Z,12.77
2022-11-15T04:06:05.967Z,12.77
2022-11-15T04:07:05.972Z,12.77
2022-11-15T04:08:05.831Z,12.78
2022-11-15T04:09:05.883Z,12.77
2022-11-15T04:10:05.921Z,12.78
2022-11-15T04:11:05.781Z,12.78
2022-11-15T04:12:05.900Z,12.77
2022-11-15T04:13:05.917Z,12.78
2022-11-15T04:14:06.205Z,12.78
2022-11-15T04:15:05.982Z,12.81
2022-11-15T04:16:05.762Z,12.81
2022-11-15T04:17:05.740Z,12.81
2022-11-15T04:18:05.820Z,12.81
2022-11-15T04:19:06.100Z,12.82
2022-11-15T04:20:05.691Z,12.79
2022-11-15T04:21:05.787Z,12.81
2022-11-15T04:22:05.741Z,12.78
2022-11-15T04:23:05.653Z,12.79
2022-11-15T04:24:05.713Z,12.77
2022-11-15T04:25:05.615Z,12.77
2022-11-15T04:26:05.655Z,12.74
2022-11-15T04:27:05.821Z,12.75
2022-11-15T04:28:05.844Z,12.71
2022-11-15T04:29:05.649Z,12.70
2022-11-15T04:30:05.656Z,12.70
2022-11-15T04:31:05.589Z,12.69
2022-11-15T04:32:05.565Z,12.69
2022-11-15T04:33:05.738Z,12.70
2022-11-15T04:34:05.529Z,12.71
2022-11-15T04:35:05.529Z,12.74
2022-11-15T04:36:05.733Z,12.74
2022-11-15T04:37:05.598Z,12.75
2022-11-15T04:38:05.712Z,12.75
2022-11-15T04:39:05.492Z,12.75
2022-11-15T04:40:05.459Z,12.75
2022-11-15T04:41:05.498Z,12.78
2022-11-15T04:42:05.449Z,12.79
2022-11-15T04:43:05.429Z,12.84
2022-11-15T04:44:05.416Z,12.82
2022-11-15T04:45:05.456Z,12.81
2022-11-15T04:46:05.405Z,12.82
2022-11-15T04:47:05.517Z,12.82
2022-11-15T04:48:05.388Z,12.81
2022-11-15T04:49:05.784Z,12.81
2022-11-15T04:50:05.373Z,12.79
2022-11-15T04:51:05.392Z,12.79
2022-11-15T04:52:05.339Z,12.79
2022-11-15T04:53:05.340Z,12.79
2022-11-15T04:54:05.334Z,12.81
2022-11-15T04:55:08.275Z,12.81
2022-11-15T04:56:05.341Z,12.81
2022-11-15T04:57:05.406Z,12.81
2022-11-15T04:58:05.581Z,12.81
2022-11-15T04:59:05.426Z,12.82
2022-11-15T05:00:05.515Z,12.81
2022-11-15T05:01:05.364Z,12.82
2022-11-15T05:02:05.274Z,12.82
2022-11-15T05:03:05.324Z,12.81
2022-11-15T05:04:05.378Z,12.81
2022-11-15T05:05:05.236Z,12.81
2022-11-15T05:06:05.228Z,12.79
2022-11-15T05:07:05.362Z,12.81
2022-11-15T05:08:05.249Z,12.79
2022-11-15T05:09:05.229Z,12.79
2022-11-15T05:10:05.205Z,12.81
2022-11-15T05:11:05.176Z,12.82
2022-11-15T05:12:05.297Z,12.85
2022-11-15T05:13:05.165Z,12.84
2022-11-15T05:14:05.166Z,12.85
2022-11-15T05:15:05.268Z,12.88
2022-11-15T05:16:05.200Z,12.87
2022-11-15T05:17:05.195Z,12.88
2022-11-15T05:18:05.109Z,12.88
2022-11-15T05:19:05.182Z,12.88
2022-11-15T05:20:05.128Z,12.88
2022-11-15T05:21:05.226Z,12.87
2022-11-15T05:22:05.053Z,12.84
2022-11-15T05:23:05.194Z,12.79
2022-11-15T05:24:05.268Z,12.78
2022-11-15T05:25:05.229Z,12.77
2022-11-15T05:26:09.014Z,12.74
2022-11-15T05:27:05.129Z,12.71
2022-11-15T05:28:05.184Z,12.71
2022-11-15T05:29:05.000Z,12.69
2022-11-15T05:30:05.122Z,12.64
2022-11-15T05:31:04.958Z,12.63
2022-11-15T05:32:05.033Z,12.59
2022-11-15T05:33:05.149Z,12.57
2022-11-15T05:34:04.920Z,12.52
2022-11-15T05:35:04.946Z,12.52
2022-11-15T05:36:05.168Z,12.49
2022-11-15T05:37:04.874Z,12.45
2022-11-15T05:38:04.888Z,12.42
2022-11-15T05:39:04.970Z,12.41
2022-11-15T05:40:05.101Z,12.39
2022-11-15T05:41:04.937Z,12.39
2022-11-15T05:42:04.900Z,12.38
2022-11-15T05:43:04.967Z,12.37
2022-11-15T05:44:04.853Z,12.38
2022-11-15T05:45:04.864Z,12.37
2022-11-15T05:46:05.347Z,12.37
2022-11-15T05:47:04.781Z,12.34
2022-11-15T05:48:04.747Z,12.37
2022-11-15T05:49:04.906Z,12.37
2022-11-15T05:50:04.757Z,12.37
2022-11-15T05:51:04.788Z,12.37
2022-11-15T05:52:04.735Z,12.37
2022-11-15T05:53:05.435Z,12.34
2022-11-15T05:54:04.738Z,12.34
2022-11-15T05:55:04.756Z,12.33
2022-11-15T05:56:04.932Z,12.34
2022-11-15T05:57:04.803Z,12.33
2022-11-15T05:58:04.693Z,12.34
2022-11-15T05:59:04.840Z,12.33
2022-11-15T06:00:04.724Z,12.33
2022-11-15T06:01:04.649Z,12.33
2022-11-15T06:02:04.702Z,12.33
2022-11-15T06:03:04.813Z,12.33
2022-11-15T06:04:04.679Z,12.31
2022-11-15T06:05:04.748Z,12.33
2022-11-15T06:06:04.760Z,12.34
2022-11-15T06:07:04.627Z,12.34
2022-11-15T06:08:04.647Z,12.33
2022-11-15T06:09:04.782Z,12.34
2022-11-15T06:10:04.596Z,12.33
2022-11-15T06:11:04.774Z,12.31
2022-11-15T06:12:04.605Z,12.31
2022-11-15T06:13:04.528Z,12.31
2022-11-15T06:14:04.564Z,12.31
2022-11-15T06:15:04.810Z,12.33
2022-11-15T06:16:04.723Z,12.31
2022-11-15T06:17:10.059Z,12.31
2022-11-15T06:18:04.761Z,12.31
2022-11-15T06:19:04.495Z,12.31
2022-11-15T06:20:04.773Z,12.33
2022-11-15T06:21:05.179Z,12.31
2022-11-15T06:22:04.495Z,12.30
2022-11-15T06:23:04.578Z,12.31
2022-11-15T06:24:04.974Z,12.29
2022-11-15T06:25:05.732Z,12.30
2022-11-15T06:26:04.458Z,12.29
2022-11-15T06:27:04.452Z,12.27
2022-11-15T06:28:04.431Z,12.27
2022-11-15T06:29:04.357Z,12.26
2022-11-15T06:30:04.520Z,12.29
2022-11-15T06:31:04.570Z,12.30
2022-11-15T06:32:04.604Z,12.30
2022-11-15T06:33:04.403Z,12.30
2022-11-15T06:34:04.692Z,12.31
2022-11-15T06:35:04.340Z,12.33
2022-11-15T06:36:04.332Z,12.34
2022-11-15T06:37:04.250Z,12.37
2022-11-15T06:38:04.322Z,12.38
2022-11-15T06:39:04.467Z,12.39
2022-11-15T06:40:04.421Z,12.38
2022-11-15T06:41:04.242Z,12.39
2022-11-15T06:42:04.271Z,12.39
2022-11-15T06:43:04.245Z,12.39
2022-11-15T06:44:04.215Z,12.39
2022-11-15T06:45:04.284Z,12.38
2022-11-15T06:46:04.253Z,12.39
2022-11-15T06:47:04.210Z,12.39
2022-11-15T06:48:04.232Z,12.39
2022-11-15T06:49:09.430Z,12.41
2022-11-15T06:50:04.192Z,12.41
2022-11-15T06:51:04.213Z,12.44
2022-11-15T06:52:04.446Z,12.45
2022-11-15T06:53:04.121Z,12.46
2022-11-15T06:54:04.115Z,12.45
2022-11-15T06:55:04.119Z,12.46
2022-11-15T06:56:04.121Z,12.45
2022-11-15T06:57:04.317Z,12.48
2022-11-15T06:58:04.055Z,12.51
2022-11-15T06:59:04.141Z,12.52
2022-11-15T07:00:04.087Z,12.54
2022-11-15T07:01:04.090Z,12.52
2022-11-15T07:02:04.267Z,12.54
2022-11-15T07:03:04.039Z,12.54
2022-11-15T07:04:04.046Z,12.54
2022-11-15T07:05:04.011Z,12.54
2022-11-15T07:06:07.375Z,12.54
2022-11-15T07:07:04.207Z,12.54
2022-11-15T07:08:04.004Z,12.52
2022-11-15T07:09:04.010Z,12.52
2022-11-15T07:10:03.944Z,12.51
2022-11-15T07:11:04.013Z,12.49
2022-11-15T07:12:07.709Z,12.46
2022-11-15T07:13:04.073Z,12.46
2022-11-15T07:14:04.043Z,12.44
2022-11-15T07:15:04.087Z,12.44
2022-11-15T07:16:04.323Z,12.41
2022-11-15T07:17:03.890Z,12.41
2022-11-15T07:18:04.063Z,12.41
2022-11-15T07:19:04.088Z,12.42
2022-11-15T07:20:04.031Z,12.42
2022-11-15T07:21:03.923Z,12.41
2022-11-15T07:22:03.823Z,12.44
2022-11-15T07:23:03.838Z,12.46
2022-11-15T07:24:03.793Z,12.46
2022-11-15T07:25:04.011Z,12.46
2022-11-15T07:26:03.937Z,12.45
2022-11-15T07:27:03.810Z,12.45
2022-11-15T07:28:03.791Z,12.46
2022-11-15T07:29:03.919Z,12.45
2022-11-15T07:30:03.904Z,12.44
2022-11-15T07:31:03.792Z,12.46
2022-11-15T07:32:04.193Z,12.46
2022-11-15T07:33:04.256Z,12.48
2022-11-15T07:34:03.963Z,12.48
2022-11-15T07:35:03.734Z,12.49
2022-11-15T07:36:03.793Z,12.52
2022-11-15T07:37:03.688Z,12.52
2022-11-15T07:38:04.252Z,12.54
2022-11-15T07:39:03.694Z,12.57
2022-11-15T07:40:03.720Z,12.57
2022-11-15T07:41:03.621Z,12.60
2022-11-15T07:42:03.766Z,12.60
2022-11-15T07:43:03.761Z,12.59
2022-11-15T07:44:03.691Z,12.60
2022-11-15T07:45:03.766Z,12.59
2022-11-15T07:46:03.582Z,12.62
2022-11-15T07:47:03.553Z,12.63
2022-11-15T07:48:03.554Z,12.64
2022-11-15T07:49:03.614Z,12.67
2022-11-15T07:50:03.554Z,12.69
2022-11-15T07:51:03.590Z,12.74
2022-11-15T07:52:03.664Z,12.78
2022-11-15T07:53:03.521Z,12.82
2022-11-15T07:54:03.738Z,12.87
2022-11-15T07:55:03.524Z,12.93
2022-11-15T07:56:03.617Z,12.96
2022-11-15T07:57:07.316Z,12.96
2022-11-15T07:58:03.656Z,13.00
2022-11-15T07:59:03.548Z,12.99
2022-11-15T08:00:04.454Z,12.99
2022-11-15T08:01:03.599Z,12.99
2022-11-15T08:02:03.791Z,13.00
2022-11-15T08:03:03.433Z,12.97
2022-11-15T08:04:03.430Z,12.99
2022-11-15T08:05:03.378Z,13.00
2022-11-15T08:06:03.498Z,12.97
2022-11-15T08:07:03.562Z,12.97
2022-11-15T08:08:03.566Z,12.97
2022-11-15T08:09:03.395Z,12.97
2022-11-15T08:10:03.493Z,13.00
2022-11-15T08:11:03.361Z,13.02
2022-11-15T08:12:03.335Z,13.02
2022-11-15T08:13:03.454Z,13.07
2022-11-15T08:14:03.332Z,13.12
2022-11-15T08:15:03.416Z,13.17
2022-11-15T08:16:03.306Z,13.20
2022-11-15T08:17:03.293Z,13.24
2022-11-15T08:18:03.303Z,13.25
2022-11-15T08:19:03.367Z,13.25
2022-11-15T08:20:03.454Z,13.25
2022-11-15T08:21:03.508Z,13.21
2022-11-15T08:22:03.485Z,13.15
2022-11-15T08:23:03.326Z,13.09
2022-11-15T08:24:03.580Z,12.99
2022-11-15T08:25:03.529Z,12.87
2022-11-15T08:26:03.216Z,12.79
2022-11-15T08:27:03.761Z,12.75
2022-11-15T08:28:03.280Z,12.56
2022-11-15T08:29:03.326Z,12.44
2022-11-15T08:30:03.147Z,12.33
2022-11-15T08:31:03.173Z,12.19
2022-11-15T08:32:03.292Z,12.05
2022-11-15T08:33:03.333Z,11.97
2022-11-15T08:34:03.301Z,11.89
2022-11-15T08:35:03.086Z,11.85
2022-11-15T08:36:03.173Z,11.83
2022-11-15T08:37:03.334Z,11.78
2022-11-15T08:38:03.246Z,11.75
2022-11-15T08:39:03.178Z,11.71
2022-11-15T08:40:03.262Z,11.70
2022-11-15T08:41:03.043Z,11.68
2022-11-15T08:42:03.287Z,11.64
2022-11-15T08:43:03.074Z,11.64
2022-11-15T08:44:03.177Z,11.65
2022-11-15T08:45:03.228Z,11.62
2022-11-15T08:46:03.146Z,11.62
2022-11-15T08:47:03.107Z,11.62
2022-11-15T08:48:03.152Z,11.61
2022-11-15T08:49:02.993Z,11.61
2022-11-15T08:50:02.941Z,11.57
2022-11-15T08:51:02.979Z,11.56
2022-11-15T08:52:03.155Z,11.54
2022-11-15T08:53:03.180Z,11.53
2022-11-15T08:54:02.932Z,11.52
2022-11-15T08:55:03.096Z,11.52
2022-11-15T08:56:03.007Z,11.52
2022-11-15T08:57:02.959Z,11.53
2022-11-15T08:58:02.863Z,11.56
2022-11-15T08:59:02.981Z,11.59
2022-11-15T09:00:03.066Z,11.62
2022-11-15T09:01:03.092Z,11.67
2022-11-15T09:02:02.879Z,11.71
2022-11-15T09:03:03.081Z,11.75
2022-11-15T09:04:02.998Z,11.80
2022-11-15T09:05:02.948Z,11.82
2022-11-15T09:06:02.813Z,11.82
2022-11-15T09:07:02.823Z,11.83
2022-11-15T09:08:13.906Z,11.83
2022-11-15T09:09:03.388Z,11.86
2022-11-15T09:10:02.880Z,11.90
2022-11-15T09:11:02.735Z,11.90
2022-11-15T09:12:03.105Z,11.93
2022-11-15T09:13:02.696Z,11.96
2022-11-15T09:14:02.714Z,12.02
2022-11-15T09:15:02.867Z,12.06
2022-11-15T09:16:02.674Z,12.11
2022-11-15T09:17:02.706Z,12.19
2022-11-15T09:18:02.645Z,12.23
2022-11-15T09:19:05.399Z,12.24
2022-11-15T09:20:02.635Z,12.30
2022-11-15T09:21:02.662Z,12.37
2022-11-15T09:22:02.607Z,12.39
2022-11-15T09:23:02.600Z,12.38
2022-11-15T09:24:02.610Z,12.44
2022-11-15T09:25:03.277Z,12.46
2022-11-15T09:26:02.991Z,12.54
2022-11-15T09:27:02.606Z,12.56
2022-11-15T09:28:02.586Z,12.59
2022-11-15T09:29:02.731Z,12.59
2022-11-15T09:30:02.561Z,12.62
2022-11-15T09:31:02.972Z,12.67
2022-11-15T09:32:02.512Z,12.77
2022-11-15T09:33:02.806Z,12.84
2022-11-15T09:34:02.523Z,12.88
2022-11-15T09:35:02.501Z,12.89
2022-11-15T09:36:02.540Z,12.99
2022-11-15T09:37:02.495Z,13.07
2022-11-15T09:38:02.541Z,13.12
2022-11-15T09:39:02.602Z,13.18
2022-11-15T09:40:02.446Z,13.25
2022-11-15T09:41:02.568Z,13.32
2022-11-15T09:42:02.431Z,13.36
2022-11-15T09:43:02.448Z,13.43
2022-11-15T09:44:02.625Z,13.49
2022-11-15T09:45:02.439Z,13.55
2022-11-15T09:46:02.384Z,13.63
2022-11-15T09:47:02.349Z,13.71
2022-11-15T09:48:02.366Z,13.87
2022-11-15T09:49:02.700Z,14.01
2022-11-15T09:50:02.535Z,14.14
2022-11-15T09:51:02.339Z,14.37
2022-11-15T09:52:02.366Z,14.74
2022-11-15T09:53:02.305Z,15.06
2022-11-15T09:54:45.623Z,15.45
2022-11-15T09:55:02.434Z,15.78
2022-11-15T09:56:02.602Z,16.07
2022-11-15T09:57:02.560Z,16.25
2022-11-15T09:58:02.319Z,16.33
2022-11-15T09:59:02.252Z,16.27
2022-11-15T10:00:44.202Z,16.26
2022-11-15T10:01:02.293Z,16.23
2022-11-15T10:02:02.319Z,16.27
2022-11-15T10:03:02.234Z,16.50
2022-11-15T10:04:03.904Z,16.77
2022-11-15T10:05:02.218Z,16.96
2022-11-15T10:06:02.135Z,17.10
2022-11-15T10:07:02.387Z,16.98
2022-11-15T10:08:02.158Z,17.03
2022-11-15T10:09:02.218Z,17.10
2022-11-15T10:10:02.263Z,16.74
2022-11-15T10:12:02.278Z,17.11
2022-11-15T10:13:02.170Z,17.29
2022-11-15T10:14:02.244Z,17.47
2022-11-15T10:15:02.318Z,17.69
2022-11-15T10:16:02.296Z,17.85
2022-11-15T10:17:02.152Z,17.92
2022-11-15T10:18:02.165Z,17.92
2022-11-15T10:19:02.126Z,17.89
2022-11-15T10:20:05.571Z,17.82
2022-11-15T10:21:02.281Z,17.85
2022-11-15T10:22:02.013Z,17.89
2022-11-15T10:23:02.028Z,17.92
2022-11-15T10:24:02.067Z,18.04
2022-11-15T10:25:01.974Z,18.28
2022-11-15T10:26:06.568Z,18.40
2022-11-15T10:27:01.981Z,18.40
2022-11-15T10:28:02.154Z,18.42
2022-11-15T10:29:01.970Z,18.57
2022-11-15T10:30:01.933Z,18.72
2022-11-15T10:31:01.992Z,18.99
2022-11-15T10:32:02.077Z,19.33
2022-11-15T10:33:02.867Z,19.48
2022-11-15T10:34:01.928Z,19.32
2022-11-15T10:35:01.866Z,19.24
2022-11-15T10:36:02.058Z,19.38
2022-11-15T10:37:02.188Z,19.39
2022-11-15T10:38:01.845Z,19.20
2022-11-15T10:39:01.929Z,19.20
2022-11-15T10:40:01.925Z,19.32
2022-11-15T10:41:02.071Z,19.14
2022-11-15T10:42:05.015Z,19.28
2022-11-15T10:43:02.028Z,19.55
2022-11-15T10:44:02.010Z,19.65
2022-11-15T10:45:01.965Z,19.58
2022-11-15T10:46:18.660Z,19.55
2022-11-15T10:47:01.848Z,19.66
2022-11-15T10:48:02.014Z,19.83
2022-11-15T10:49:01.870Z,20.02
2022-11-15T10:50:01.738Z,20.20
2022-11-15T10:51:01.728Z,20.15
2022-11-15T10:52:01.737Z,20.00
2022-11-15T10:53:01.715Z,20.09
2022-11-15T10:54:01.700Z,19.88
2022-11-15T10:55:01.698Z,19.47
2022-11-15T10:56:01.683Z,19.35
2022-11-15T10:57:01.663Z,19.39
2022-11-15T10:58:01.634Z,19.39
2022-11-15T10:59:01.711Z,19.01
2022-11-15T11:00:01.668Z,18.76
2022-11-15T11:01:01.992Z,18.43
2022-11-15T11:02:01.734Z,18.22
2022-11-15T11:03:01.614Z,17.91
2022-11-15T11:04:01.644Z,17.33
2022-11-15T11:05:01.688Z,17.04
2022-11-15T11:06:01.694Z,16.90
2022-11-15T11:07:01.895Z,16.73
2022-11-15T11:08:01.575Z,16.60
2022-11-15T11:09:01.696Z,16.41
2022-11-15T11:10:01.547Z,16.37
2022-11-15T11:11:03.407Z,16.52
2022-11-15T11:12:01.885Z,16.55
2022-11-15T11:13:01.555Z,16.52
2022-11-15T11:14:01.505Z,16.44
2022-11-15T11:15:01.683Z,16.50
2022-11-15T11:16:01.585Z,16.55
2022-11-15T11:17:01.743Z,16.42
2022-11-15T11:18:01.486Z,16.37
2022-11-15T11:19:01.497Z,16.45
2022-11-15T11:20:01.503Z,16.68
2022-11-15T11:21:01.820Z,16.90
2022-11-15T11:22:01.616Z,17.28
2022-11-15T11:23:01.563Z,17.64
2022-11-15T11:24:01.448Z,18.03
2022-11-15T11:25:01.611Z,18.17
2022-11-15T11:26:01.414Z,18.39
2022-11-15T11:27:01.363Z,18.55
2022-11-15T11:28:01.383Z,18.79
2022-11-15T11:29:01.414Z,18.92
2022-11-15T11:30:01.487Z,19.20
2022-11-15T11:31:01.313Z,19.46
2022-11-15T11:32:01.339Z,19.76
2022-11-15T11:33:01.342Z,19.95
2022-11-15T11:34:01.334Z,19.88
2022-11-15T11:35:01.573Z,20.08
2022-11-15T11:36:01.301Z,20.46
2022-11-15T11:37:01.281Z,20.59
2022-11-15T11:38:01.307Z,20.64
2022-11-15T11:39:01.287Z,20.69
2022-11-15T11:40:03.006Z,20.25
2022-11-15T11:41:01.253Z,19.91
2022-11-15T11:42:01.263Z,19.65
2022-11-15T11:43:01.193Z,19.29
2022-11-15T11:44:01.450Z,19.17
2022-11-15T11:45:01.312Z,19.10
2022-11-15T11:46:01.174Z,18.92
2022-11-15T11:47:01.224Z,18.83
2022-11-15T11:48:01.260Z,18.65
2022-11-15T11:49:01.192Z,18.12
2022-11-15T11:50:01.363Z,17.91
2022-11-15T11:51:01.266Z,17.85
2022-11-15T11:52:01.252Z,17.87
2022-11-15T11:53:04.133Z,17.99
2022-11-15T11:54:01.244Z,18.06
2022-11-15T11:55:01.251Z,18.06
2022-11-15T11:56:01.670Z,18.17
2022-11-15T11:57:01.104Z,18.22
2022-11-15T11:58:01.366Z,18.28
2022-11-15T11:59:01.118Z,18.02
2022-11-15T12:00:01.848Z,17.71
2022-11-15T12:01:01.029Z,17.41
2022-11-15T12:02:01.280Z,17.13
2022-11-15T12:03:01.471Z,16.85
2022-11-15T12:04:01.035Z,16.71
2022-11-15T12:05:01.062Z,16.75
2022-11-15T12:06:01.022Z,16.86
2022-11-15T12:07:01.029Z,16.80
2022-11-15T12:08:04.144Z,16.77
2022-11-15T12:09:00.998Z,16.75
2022-11-15T12:10:00.970Z,16.83
2022-11-15T12:11:01.013Z,16.80
2022-11-15T12:12:00.918Z,16.85
2022-11-15T12:13:00.978Z,16.88
2022-11-15T12:14:00.906Z,16.85
2022-11-15T12:15:01.111Z,16.83
2022-11-15T12:16:02.893Z,16.71
2022-11-15T12:17:00.930Z,16.59
2022-11-15T12:18:01.074Z,16.60
2022-11-15T12:19:00.991Z,16.53
2022-11-15T12:20:01.025Z,16.44
2022-11-15T12:21:00.852Z,16.34
2022-11-15T12:22:00.951Z,16.53
2022-11-15T12:23:01.079Z,16.67
2022-11-15T12:24:01.097Z,16.89
2022-11-15T12:25:01.121Z,17.06
2022-11-15T12:26:00.990Z,17.03
2022-11-15T12:27:01.327Z,16.80
2022-11-15T12:28:00.842Z,16.68
2022-11-15T12:29:09.162Z,16.50
2022-11-15T12:30:01.072Z,16.34
2022-11-15T12:31:00.721Z,16.15
2022-11-15T12:32:00.953Z,15.86
2022-11-15T12:33:01.023Z,15.60
2022-11-15T12:34:06.933Z,15.51
2022-11-15T12:35:00.778Z,15.39
2022-11-15T12:36:00.783Z,15.31
2022-11-15T12:37:00.718Z,15.28
2022-11-15T12:38:00.688Z,15.24
2022-11-15T12:39:00.860Z,15.12
2022-11-15T12:40:03.719Z,15.05
2022-11-15T12:41:00.694Z,15.02
2022-11-15T12:42:00.647Z,15.01
2022-11-15T12:43:01.321Z,14.98
2022-11-15T12:44:00.612Z,14.95
2022-11-15T12:45:00.817Z,14.98
2022-11-15T12:46:00.595Z,14.95
2022-11-15T12:47:00.974Z,14.94
2022-11-15T12:48:00.709Z,14.95
2022-11-15T12:49:00.797Z,14.93
2022-11-15T12:50:00.606Z,14.94
2022-11-15T12:51:00.624Z,14.95
2022-11-15T12:52:00.561Z,14.88
2022-11-15T12:53:00.554Z,14.88